Aeroporto :
LOGIN :

Iscrizione | Disclaimer

   EN    FR    IT 

 










Sommario :    VFR   VFR Marginale   IFR   IFR Intensivo   IFR Molto Intensivo
Visibilità : 
Base nubi : 
>= 8 km
>= 3000ft
5 / 8 km
1000 / 3000 ft
1500m / 5 km
500 / 1000 ft
800 / 1500m
200 / 500 ft
< 800m
< 200 ft
Simboli :   Temporali  Nebbia  Neve Forte  Precipitazioni Forti  Vento > 20 kt
SIGMETs :   Varie  Temporali  Ghiacco  Turbolenza  Onda orograficha  Ceneri Vulcaniche






- Altitudine del aeroporto : 648 ft
- Codice IATA : INI


LYNI - Nis Constantine

ULTIMO METAR :
  • 290800Z VRB02KT 6000 SCT013 OVC023 11/09 Q1019 NOSIG

METARs OBSOLETI :
  • 290730Z VRB01KT 5000 BR BKN023 10/09 Q1019 NOSIG
  • 290700Z VRB01KT 5000 BR FEW010 BKN023 09/09 Q1019 NOSIG
  • 290630Z VRB01KT 5000 BR FEW008 BKN023 09/09 Q1019
  • 290600Z VRB01KT 3500 BR BKN023 08/08 Q1018 NOSIG
  • 290530Z VRB02KT 3500 BR SCT003 BKN030 08/07 Q1018 TEMPO 1200 BKN003

TAF TAF LYNI
Valido dal 29 a 06 ore il 30 a 06 ore UTC


290500Z 2906/3006 22004KT 9999 BKN030 TX18/2913Z TN07/3005Z
TEMPO 2906/2908 3000 BR
BECMG 3001/3003 32015KT
TEMPO 3003/3006 32018G30KT



MetMap, La meteo Aeronautica in un colpo d'occhio ! - Copyright ORBIFLY Dicembre 2007 - Disclaimer

ORBIFLY MET'MAP TEAM :

Programmazione e sviluppo : Alexandra Zaïnal
Concezione : Baudouin d'Aumeries
Aiuto per la programmazione : Marc-Olivier Méhu
Supporto tecnico e logistico : Manuel Goepfert
Aiuto per la traduzione : Arnaldo La Scala

Contatto : metmap@orbifly.com




FONTI E CREDITI :

   NOAA